createdAt,value
2018-12-30T00:02:23.281Z,10.97
2018-12-30T00:04:52.540Z,8.63
2018-12-30T00:07:21.578Z,6.50
2018-12-30T00:09:48.896Z,8.73
2018-12-30T00:12:18.237Z,16.23
2018-12-30T00:14:45.870Z,9.73
2018-12-30T00:17:13.228Z,13.30
2018-12-30T00:19:42.418Z,8.10
2018-12-30T00:22:09.579Z,9.33
2018-12-30T00:24:56.254Z,12.03
2018-12-30T00:27:23.570Z,8.87
2018-12-30T00:29:50.990Z,8.70
2018-12-30T00:32:18.442Z,9.83
2018-12-30T00:34:46.121Z,16.13
2018-12-30T00:37:13.445Z,8.63
2018-12-30T00:39:40.758Z,14.27
2018-12-30T00:44:56.255Z,14.20
2018-12-30T00:47:23.662Z,13.00
2018-12-30T00:49:51.075Z,13.33
2018-12-30T00:52:18.469Z,11.10
2018-12-30T00:54:45.923Z,15.40
2018-12-30T00:59:59.943Z,13.47
2018-12-30T01:02:27.375Z,12.90
2018-12-30T01:04:54.745Z,12.20
2018-12-30T01:07:22.084Z,15.87
2018-12-30T01:09:49.423Z,15.13
2018-12-30T01:12:16.747Z,13.17
2018-12-30T01:14:44.062Z,17.73
2018-12-30T01:17:11.421Z,16.43
2018-12-30T01:19:38.751Z,17.00
2018-12-30T01:22:06.077Z,14.07
2018-12-30T01:24:33.459Z,12.17
2018-12-30T01:27:02.624Z,18.80
2018-12-30T01:29:30.050Z,15.87
2018-12-30T01:31:57.367Z,14.13
2018-12-30T01:34:24.991Z,11.53
2018-12-30T01:36:52.306Z,17.97
2018-12-30T01:39:19.614Z,17.53
2018-12-30T01:41:48.670Z,11.30
2018-12-30T01:44:15.987Z,8.90
2018-12-30T01:46:43.314Z,11.73
2018-12-30T01:49:10.959Z,13.43
2018-12-30T01:51:38.266Z,12.17
2018-12-30T01:54:05.573Z,15.17
2018-12-30T01:56:32.906Z,14.47
2018-12-30T01:59:00.218Z,13.73
2018-12-30T02:01:27.534Z,15.60
2018-12-30T02:03:55.178Z,16.67
2018-12-30T02:09:10.590Z,12.20
2018-12-30T02:11:38.338Z,16.27
2018-12-30T02:14:08.675Z,11.00
2018-12-30T02:16:35.977Z,17.53
2018-12-30T02:19:03.302Z,16.30
2018-12-30T02:21:30.617Z,12.13
2018-12-30T02:23:57.935Z,15.00
2018-12-30T02:26:25.530Z,9.60
2018-12-30T02:28:52.837Z,15.43
2018-12-30T02:31:20.161Z,16.70
2018-12-30T02:33:49.212Z,13.20
2018-12-30T02:36:16.594Z,16.40
2018-12-30T02:38:43.943Z,18.03
2018-12-30T02:41:11.246Z,12.37
2018-12-30T02:43:38.573Z,13.07
2018-12-30T02:46:06.201Z,19.13
2018-12-30T02:48:33.539Z,13.20
2018-12-30T02:51:00.875Z,16.37
2018-12-30T02:53:28.182Z,17.00
2018-12-30T02:55:55.826Z,14.80
2018-12-30T02:58:23.148Z,10.83
2018-12-30T03:00:52.179Z,11.00
2018-12-30T03:03:19.518Z,16.10
2018-12-30T03:06:06.183Z,13.83
2018-12-30T03:08:33.514Z,16.57
2018-12-30T03:13:33.699Z,16.53
2018-12-30T03:16:01.011Z,20.70
2018-12-30T03:18:28.366Z,11.53
2018-12-30T03:20:55.700Z,11.50
2018-12-30T03:23:23.038Z,15.27
2018-12-30T03:25:50.344Z,12.37
2018-12-30T03:28:17.685Z,13.20
2018-12-30T03:30:45.015Z,15.93
2018-12-30T03:33:12.339Z,14.17
2018-12-30T03:35:39.642Z,14.07
2018-12-30T03:38:06.954Z,10.47
2018-12-30T03:40:34.723Z,14.50
2018-12-30T03:43:02.377Z,22.20
2018-12-30T03:45:30.042Z,14.40
2018-12-30T03:47:57.355Z,17.30
2018-12-30T03:50:24.658Z,15.00
2018-12-30T03:52:51.990Z,11.10
2018-12-30T03:55:19.305Z,16.93
2018-12-30T03:57:46.617Z,11.43
2018-12-30T04:00:13.950Z,13.80
2018-12-30T04:02:41.828Z,17.67
2018-12-30T04:05:10.336Z,18.90
2018-12-30T04:07:38.068Z,16.13
2018-12-30T04:12:59.713Z,11.57
2018-12-30T04:18:15.103Z,17.17
2018-12-30T04:20:42.415Z,14.07
2018-12-30T04:23:09.739Z,19.47
2018-12-30T04:25:37.072Z,14.10
2018-12-30T04:28:04.405Z,12.87
2018-12-30T04:30:31.714Z,12.30
2018-12-30T04:32:59.028Z,15.37
2018-12-30T04:35:26.775Z,11.67
2018-12-30T04:37:54.333Z,16.07
2018-12-30T04:40:21.642Z,13.13
2018-12-30T04:42:48.972Z,12.77
2018-12-30T04:45:16.278Z,8.67
2018-12-30T04:47:43.597Z,11.63
2018-12-30T04:50:10.910Z,18.30
2018-12-30T04:52:38.242Z,13.83
2018-12-30T04:55:05.549Z,16.83
2018-12-30T04:57:32.870Z,14.77
2018-12-30T05:00:00.207Z,17.20
2018-12-30T05:02:27.534Z,14.83
2018-12-30T05:08:02.117Z,19.03
2018-12-30T05:10:29.428Z,13.33
2018-12-30T05:12:56.774Z,15.07
2018-12-30T05:15:24.083Z,11.73
2018-12-30T05:17:51.417Z,12.50
2018-12-30T05:20:18.737Z,14.97
2018-12-30T05:22:46.070Z,16.87
2018-12-30T05:25:13.390Z,14.53
2018-12-30T05:27:40.704Z,15.87
2018-12-30T05:30:08.033Z,17.07
2018-12-30T05:32:35.365Z,15.67
2018-12-30T05:35:02.690Z,14.87
2018-12-30T05:37:30.018Z,19.17
2018-12-30T05:39:57.336Z,13.37
2018-12-30T05:42:24.646Z,15.83
2018-12-30T05:44:51.977Z,13.73
2018-12-30T05:47:19.289Z,15.57
2018-12-30T05:49:46.606Z,14.20
2018-12-30T05:52:13.934Z,20.87
2018-12-30T05:54:41.252Z,23.00
2018-12-30T05:57:08.564Z,21.00
2018-12-30T05:59:35.898Z,15.77
2018-12-30T06:02:03.214Z,12.20
2018-12-30T06:04:30.547Z,15.20
2018-12-30T06:07:17.144Z,19.50
2018-12-30T06:09:44.462Z,12.53
2018-12-30T06:12:11.779Z,10.97
2018-12-30T06:14:39.089Z,16.30
2018-12-30T06:17:06.855Z,12.97
2018-12-30T06:19:34.166Z,10.43
2018-12-30T06:22:01.473Z,16.80
2018-12-30T06:24:28.798Z,13.37
2018-12-30T06:26:56.109Z,14.17
2018-12-30T06:29:23.433Z,20.13
2018-12-30T06:31:50.746Z,13.30
2018-12-30T06:34:18.057Z,17.70
2018-12-30T06:36:45.679Z,14.13
2018-12-30T06:39:13.238Z,15.40
2018-12-30T06:41:40.545Z,14.93
2018-12-30T06:44:07.878Z,10.93
2018-12-30T06:46:35.501Z,16.53
2018-12-30T06:49:03.057Z,15.83
2018-12-30T06:51:30.387Z,17.97
2018-12-30T06:53:57.705Z,12.27
2018-12-30T06:56:25.033Z,15.10
2018-12-30T06:58:52.370Z,20.13
2018-12-30T07:01:19.719Z,14.20
2018-12-30T07:03:47.025Z,12.07
2018-12-30T07:06:14.333Z,13.17
2018-12-30T07:08:41.658Z,16.03
2018-12-30T07:11:10.710Z,13.23
2018-12-30T07:13:38.034Z,19.37
2018-12-30T07:16:05.337Z,17.90
2018-12-30T07:18:32.651Z,16.20
2018-12-30T07:20:59.979Z,18.33
2018-12-30T07:23:27.306Z,11.83
2018-12-30T07:25:54.670Z,11.77
2018-12-30T07:28:21.973Z,15.07
2018-12-30T07:30:49.277Z,17.83
2018-12-30T07:33:16.618Z,17.47
2018-12-30T07:35:43.922Z,9.50
2018-12-30T07:38:11.231Z,13.33
2018-12-30T07:40:38.549Z,9.53
2018-12-30T07:43:05.858Z,12.93
2018-12-30T07:45:33.181Z,16.40
2018-12-30T07:48:00.490Z,15.43
2018-12-30T07:50:28.134Z,18.00
2018-12-30T07:52:55.457Z,17.03
2018-12-30T07:55:23.051Z,9.53
2018-12-30T07:57:50.355Z,14.67
2018-12-30T08:00:17.663Z,14.07
2018-12-30T08:02:45.315Z,15.53
2018-12-30T08:05:12.626Z,18.00
2018-12-30T08:07:40.223Z,15.13
2018-12-30T08:10:07.549Z,15.07
2018-12-30T08:12:35.138Z,15.37
2018-12-30T08:15:02.702Z,15.40
2018-12-30T08:17:30.362Z,16.67
2018-12-30T08:19:57.689Z,13.13
2018-12-30T08:22:24.993Z,16.30
2018-12-30T08:24:52.326Z,16.70
2018-12-30T08:27:19.634Z,15.27
2018-12-30T08:32:40.602Z,16.03
2018-12-30T08:35:07.910Z,15.33
2018-12-30T08:37:35.213Z,13.83
2018-12-30T08:40:02.864Z,16.07
2018-12-30T08:42:30.177Z,21.83
2018-12-30T08:44:57.508Z,16.50
2018-12-30T08:47:24.846Z,17.90
2018-12-30T08:49:52.154Z,15.83
2018-12-30T08:52:19.463Z,20.77
2018-12-30T08:54:47.086Z,15.83
2018-12-30T08:57:14.410Z,17.03
2018-12-30T08:59:41.819Z,12.43
2018-12-30T09:02:09.149Z,17.63
2018-12-30T09:04:36.456Z,13.33
2018-12-30T09:07:04.067Z,16.73
2018-12-30T09:09:31.718Z,15.90
2018-12-30T09:11:59.019Z,8.80
2018-12-30T09:14:26.354Z,15.93
2018-12-30T09:16:53.697Z,9.50
2018-12-30T09:19:21.033Z,16.20
2018-12-30T09:21:48.335Z,15.70
2018-12-30T09:24:15.675Z,12.33
2018-12-30T09:26:43.310Z,9.83
2018-12-30T09:29:10.649Z,12.30
2018-12-30T09:31:37.989Z,10.23
2018-12-30T09:37:12.567Z,15.90
2018-12-30T09:39:39.870Z,9.00
2018-12-30T09:42:07.222Z,6.93
2018-12-30T09:47:41.786Z,13.87
2018-12-30T09:50:09.103Z,13.97
2018-12-30T09:52:36.434Z,8.73
2018-12-30T09:57:57.149Z,18.83
2018-12-30T10:00:24.457Z,16.77
2018-12-30T10:02:52.130Z,11.30
2018-12-30T10:05:19.797Z,13.80
2018-12-30T10:07:47.351Z,11.13
2018-12-30T10:10:14.689Z,12.00
2018-12-30T10:12:42.256Z,17.57
2018-12-30T10:15:10.231Z,11.60
2018-12-30T10:17:38.694Z,14.20
2018-12-30T10:23:00.350Z,10.40
2018-12-30T10:25:27.684Z,12.13
2018-12-30T10:27:55.261Z,12.23
2018-12-30T10:30:22.590Z,9.57
2018-12-30T10:32:50.174Z,11.33
2018-12-30T10:35:17.505Z,10.10
2018-12-30T10:37:44.833Z,11.40
2018-12-30T10:40:12.438Z,11.00
2018-12-30T10:42:40.002Z,8.83
2018-12-30T10:45:07.316Z,14.23
2018-12-30T10:47:34.908Z,20.07
2018-12-30T10:50:02.580Z,9.03
2018-12-30T10:52:29.873Z,14.80
2018-12-30T10:54:57.481Z,11.40
2018-12-30T10:57:25.046Z,11.73
2018-12-30T10:59:52.702Z,9.00
2018-12-30T11:02:20.366Z,14.57
2018-12-30T11:04:47.690Z,13.63
2018-12-30T11:07:15.277Z,14.73
2018-12-30T11:09:42.586Z,9.07
2018-12-30T11:12:09.913Z,11.80
2018-12-30T11:14:37.223Z,13.10
2018-12-30T11:17:04.538Z,18.13
2018-12-30T11:19:31.878Z,13.13
2018-12-30T11:21:59.186Z,11.73
2018-12-30T11:24:26.523Z,11.23
2018-12-30T11:26:53.829Z,9.33
2018-12-30T11:29:21.466Z,10.10
2018-12-30T11:31:48.798Z,9.57
2018-12-30T11:34:16.106Z,12.33
2018-12-30T11:39:37.049Z,9.10
2018-12-30T11:42:04.348Z,13.00
2018-12-30T11:44:31.645Z,9.47
2018-12-30T11:46:59.257Z,12.93
2018-12-30T11:49:26.556Z,12.03
2018-12-30T11:51:53.882Z,12.07
2018-12-30T11:54:21.512Z,13.20
2018-12-30T11:56:48.847Z,15.67
2018-12-30T11:59:16.149Z,12.97
2018-12-30T12:01:43.477Z,14.17
2018-12-30T12:04:10.812Z,13.23
2018-12-30T12:06:38.117Z,11.47
2018-12-30T12:11:59.040Z,10.93
2018-12-30T12:14:26.666Z,16.27
2018-12-30T12:16:54.003Z,12.37
2018-12-30T12:19:21.501Z,13.40
2018-12-30T12:21:49.138Z,10.37
2018-12-30T12:24:24.100Z,11.30
2018-12-30T12:26:45.513Z,14.87
2018-12-30T12:29:12.818Z,10.57
2018-12-30T12:31:40.146Z,12.53
2018-12-30T12:34:28.568Z,12.17
2018-12-30T12:36:56.198Z,15.23
2018-12-30T12:39:23.506Z,13.90
2018-12-30T12:41:50.849Z,15.43
2018-12-30T12:44:18.159Z,14.37
2018-12-30T12:46:45.466Z,13.23
2018-12-30T12:49:12.815Z,12.27
2018-12-30T12:51:40.189Z,18.73
2018-12-30T12:54:07.782Z,16.13
2018-12-30T12:56:35.110Z,13.60
2018-12-30T12:59:02.418Z,14.77
2018-12-30T13:01:29.750Z,16.60
2018-12-30T13:03:57.057Z,10.20
2018-12-30T13:06:24.362Z,11.50
2018-12-30T13:08:51.699Z,17.87
2018-12-30T13:11:19.362Z,16.97
2018-12-30T13:13:46.666Z,17.80
2018-12-30T13:16:13.978Z,12.73
2018-12-30T13:18:41.304Z,15.43
2018-12-30T13:21:08.609Z,15.23
2018-12-30T13:23:35.933Z,10.73
2018-12-30T13:26:03.267Z,13.17
2018-12-30T13:28:30.694Z,16.37
2018-12-30T13:30:57.993Z,14.87
2018-12-30T13:33:25.638Z,15.57
2018-12-30T13:35:53.306Z,12.53
2018-12-30T13:38:28.111Z,14.20
2018-12-30T13:40:49.673Z,10.07
2018-12-30T13:43:17.007Z,16.30
2018-12-30T13:45:44.336Z,12.40
2018-12-30T13:48:11.666Z,13.90
2018-12-30T13:50:38.999Z,14.97
2018-12-30T13:53:06.305Z,14.07
2018-12-30T13:55:41.042Z,15.00
2018-12-30T13:58:08.602Z,13.53
2018-12-30T14:03:22.866Z,14.80
2018-12-30T14:05:50.205Z,17.90
2018-12-30T14:08:17.524Z,17.30
2018-12-30T14:10:44.866Z,15.97
2018-12-30T14:13:12.217Z,11.57
2018-12-30T14:15:39.526Z,17.17
2018-12-30T14:18:06.831Z,12.93
2018-12-30T14:20:34.158Z,18.90
2018-12-30T14:23:01.830Z,15.93
2018-12-30T14:25:29.125Z,11.23
2018-12-30T14:27:56.466Z,14.83
2018-12-30T14:30:23.789Z,13.47
2018-12-30T14:32:51.093Z,18.47
2018-12-30T14:35:18.449Z,13.93
2018-12-30T14:37:45.762Z,11.63
2018-12-30T14:40:13.374Z,17.40
2018-12-30T14:42:40.702Z,13.37
2018-12-30T14:48:15.273Z,16.60
2018-12-30T14:50:42.582Z,13.83
2018-12-30T14:53:18.834Z,15.37
2018-12-30T14:55:38.949Z,13.27
2018-12-30T14:58:06.281Z,15.60
2018-12-30T15:00:33.657Z,14.90
2018-12-30T15:03:00.965Z,15.50
2018-12-30T15:05:28.595Z,14.93
2018-12-30T15:07:55.917Z,18.43
2018-12-30T15:10:23.254Z,14.10
2018-12-30T15:12:50.855Z,16.80
2018-12-30T15:15:18.186Z,13.73
2018-12-30T15:17:45.510Z,17.17
2018-12-30T15:20:12.835Z,21.70
2018-12-30T15:22:40.171Z,13.87
2018-12-30T15:25:11.710Z,13.37
2018-12-30T15:27:36.546Z,11.17
2018-12-30T15:32:57.746Z,14.67
2018-12-30T15:35:25.052Z,16.37
2018-12-30T15:37:52.377Z,16.80
2018-12-30T15:40:19.718Z,13.70
2018-12-30T15:42:47.054Z,14.20
2018-12-30T15:45:14.713Z,11.67
2018-12-30T15:47:42.023Z,16.47
2018-12-30T15:50:09.354Z,14.87
2018-12-30T15:52:36.981Z,14.00
2018-12-30T15:57:58.249Z,13.50
2018-12-30T16:00:25.552Z,14.90
2018-12-30T16:02:52.885Z,13.83
2018-12-30T16:05:20.217Z,15.30
2018-12-30T16:07:47.556Z,14.33
2018-12-30T16:10:15.186Z,13.47
2018-12-30T16:12:42.536Z,15.77
2018-12-30T16:15:09.834Z,18.30
2018-12-30T16:17:37.162Z,22.47
2018-12-30T16:22:58.329Z,12.63
2018-12-30T16:25:27.359Z,15.57
2018-12-30T16:27:54.690Z,19.40
2018-12-30T16:30:22.002Z,16.60
2018-12-30T16:32:49.353Z,17.57
2018-12-30T16:35:18.706Z,11.83
2018-12-30T16:37:46.053Z,17.87
2018-12-30T16:40:13.638Z,17.07
2018-12-30T16:42:40.976Z,15.37
2018-12-30T16:45:08.287Z,11.83
2018-12-30T16:47:41.753Z,17.33
2018-12-30T16:52:58.878Z,14.47
2018-12-30T16:55:26.185Z,16.37
2018-12-30T16:57:53.493Z,20.83
2018-12-30T17:00:20.834Z,16.00
2018-12-30T17:02:48.138Z,11.80
2018-12-30T17:05:15.466Z,13.93
2018-12-30T17:07:42.769Z,14.20
2018-12-30T17:10:10.152Z,12.80
2018-12-30T17:12:37.463Z,14.97
2018-12-30T17:17:58.834Z,10.97
2018-12-30T17:20:26.133Z,8.73
2018-12-30T17:22:53.463Z,6.90
2018-12-30T17:25:20.764Z,8.27
2018-12-30T17:27:48.089Z,8.07
2018-12-30T17:30:15.433Z,7.20
2018-12-30T17:32:42.825Z,9.13
2018-12-30T17:35:10.164Z,14.03
2018-12-30T17:37:37.495Z,7.20
2018-12-30T17:42:59.054Z,9.53
2018-12-30T17:45:26.362Z,8.10
2018-12-30T17:47:53.670Z,10.77
2018-12-30T17:50:20.990Z,9.53
2018-12-30T17:52:48.615Z,7.60
2018-12-30T17:55:15.938Z,12.57
2018-12-30T17:57:43.526Z,10.23
2018-12-30T18:00:10.860Z,16.40
2018-12-30T18:02:38.194Z,16.37
2018-12-30T18:07:59.690Z,14.63
2018-12-30T18:10:26.993Z,14.77
2018-12-30T18:12:54.325Z,14.77
2018-12-30T18:15:21.625Z,14.40
2018-12-30T18:17:48.986Z,19.80
2018-12-30T18:20:16.296Z,14.70
2018-12-30T18:22:43.601Z,16.80
2018-12-30T18:25:10.938Z,10.73
2018-12-30T18:27:38.251Z,20.13
2018-12-30T18:32:59.179Z,13.87
2018-12-30T18:35:26.474Z,13.80
2018-12-30T18:37:53.813Z,20.57
2018-12-30T18:40:21.487Z,14.77
2018-12-30T18:42:48.790Z,16.63
2018-12-30T18:45:16.113Z,20.17
2018-12-30T18:47:43.421Z,14.27
2018-12-30T18:50:10.744Z,15.77
2018-12-30T18:52:38.054Z,14.97
2018-12-30T18:57:59.022Z,15.73
2018-12-30T19:00:26.625Z,14.30
2018-12-30T19:02:54.286Z,14.30
2018-12-30T19:05:21.946Z,19.17
2018-12-30T19:07:49.277Z,20.67
2018-12-30T19:10:16.591Z,17.77
2018-12-30T19:12:43.926Z,19.10
2018-12-30T19:15:11.256Z,20.33
2018-12-30T19:17:38.954Z,21.10
2018-12-30T19:20:06.328Z,21.10
2018-12-30T19:22:33.937Z,25.57
2018-12-30T19:25:01.605Z,18.43
2018-12-30T19:27:28.910Z,22.57
2018-12-30T19:29:56.246Z,22.53
2018-12-30T19:32:23.581Z,23.00
2018-12-30T19:34:50.920Z,22.43
2018-12-30T19:37:18.231Z,24.33
2018-12-30T19:39:45.631Z,21.83
2018-12-30T19:42:12.933Z,19.17
2018-12-30T19:44:40.273Z,23.27
2018-12-30T19:47:07.893Z,51.63
2018-12-30T19:49:35.216Z,21.77
2018-12-30T19:52:02.549Z,27.00
2018-12-30T19:54:29.866Z,36.70
2018-12-30T19:56:57.198Z,30.87
2018-12-30T19:59:24.534Z,28.40
2018-12-30T20:01:51.853Z,30.27
2018-12-30T20:04:19.192Z,29.20
2018-12-30T20:06:46.518Z,36.43
2018-12-30T20:09:13.830Z,32.27
2018-12-30T20:11:41.166Z,60.97
2018-12-30T20:14:08.782Z,37.97
2018-12-30T20:16:36.150Z,46.63
2018-12-30T20:19:03.470Z,40.33
2018-12-30T20:21:31.041Z,30.67
2018-12-30T20:23:58.378Z,50.80
2018-12-30T20:26:29.913Z,38.93
2018-12-30T20:28:55.050Z,41.97
2018-12-30T20:31:22.418Z,37.70
2018-12-30T20:33:49.748Z,32.97
2018-12-30T20:36:17.426Z,44.37
2018-12-30T20:38:44.861Z,44.97
2018-12-30T20:41:12.183Z,43.77
2018-12-30T20:43:39.518Z,51.33
2018-12-30T20:46:06.848Z,56.23
2018-12-30T20:48:34.495Z,52.03
2018-12-30T20:51:21.201Z,72.40
2018-12-30T20:53:48.494Z,53.87
2018-12-30T20:56:37.901Z,64.90
2018-12-30T20:59:04.220Z,71.47
2018-12-30T21:01:31.593Z,69.87
2018-12-30T21:03:58.901Z,61.07
2018-12-30T21:06:26.238Z,62.97
2018-12-30T21:08:53.574Z,53.47
2018-12-30T21:11:20.917Z,56.73
2018-12-30T21:13:48.478Z,63.50
2018-12-30T21:16:15.813Z,52.20
2018-12-30T21:18:43.146Z,60.17
2018-12-30T21:21:10.470Z,70.77
2018-12-30T21:23:38.098Z,57.13
2018-12-30T21:26:05.418Z,53.57
2018-12-30T21:28:32.753Z,58.50
2018-12-30T21:31:00.362Z,57.33
2018-12-30T21:33:27.678Z,49.57
2018-12-30T21:35:54.991Z,61.10
2018-12-30T21:38:22.361Z,65.10
2018-12-30T21:40:49.672Z,58.63
2018-12-30T21:43:16.986Z,67.87
2018-12-30T21:45:44.342Z,57.87
2018-12-30T21:48:11.653Z,59.23
2018-12-30T21:50:38.966Z,54.40
2018-12-30T21:53:06.311Z,58.27
2018-12-30T21:55:33.646Z,55.90
2018-12-30T21:58:01.049Z,57.90
2018-12-30T22:00:28.425Z,56.77
2018-12-30T22:02:56.063Z,54.23
2018-12-30T22:05:23.446Z,67.07
2018-12-30T22:07:50.785Z,48.50
2018-12-30T22:10:18.102Z,51.00
2018-12-30T22:12:45.686Z,41.63
2018-12-30T22:15:13.089Z,53.03
2018-12-30T22:17:40.698Z,44.03
2018-12-30T22:20:08.117Z,46.87
2018-12-30T22:22:35.449Z,52.80
2018-12-30T22:25:02.844Z,49.07
2018-12-30T22:27:30.179Z,40.57
2018-12-30T22:29:57.490Z,44.90
2018-12-30T22:32:24.837Z,41.93
2018-12-30T22:34:52.179Z,42.17
2018-12-30T22:37:19.502Z,42.17
2018-12-30T22:39:46.838Z,41.47
2018-12-30T22:42:14.441Z,32.63
2018-12-30T22:44:41.779Z,38.83
2018-12-30T22:47:09.370Z,42.13
2018-12-30T22:49:36.710Z,75.33
2018-12-30T22:52:04.028Z,85.00
2018-12-30T22:54:31.358Z,47.57
2018-12-30T22:56:58.705Z,46.07
2018-12-30T22:59:26.017Z,41.93
2018-12-30T23:01:53.682Z,44.83
2018-12-30T23:04:21.018Z,45.97
2018-12-30T23:06:48.598Z,46.77
2018-12-30T23:09:15.922Z,42.07
2018-12-30T23:11:43.237Z,50.17
2018-12-30T23:14:10.581Z,45.73
2018-12-30T23:16:37.885Z,55.40
2018-12-30T23:19:05.218Z,45.37
2018-12-30T23:21:32.565Z,51.50
2018-12-30T23:24:00.196Z,44.90
2018-12-30T23:26:27.505Z,49.50
2018-12-30T23:28:55.153Z,54.83
2018-12-30T23:31:22.461Z,46.43
2018-12-30T23:33:50.102Z,48.03
2018-12-30T23:36:17.434Z,45.47
2018-12-30T23:41:33.041Z,44.87
2018-12-30T23:44:00.386Z,45.63
2018-12-30T23:46:27.730Z,51.37
2018-12-30T23:48:55.065Z,51.27
2018-12-30T23:51:22.373Z,56.97
2018-12-30T23:53:49.686Z,53.37
2018-12-30T23:56:17.023Z,49.20
2018-12-30T23:58:44.328Z,58.30
